sensor_id;sensor_type;location;lat;lon;timestamp;P1;durP1;ratioP1;P2;durP2;ratioP2
25868;SDS011;13688;53.154;18.136;2022-11-12T00:03:53;17.00;;;9.47;;
25868;SDS011;13688;53.154;18.136;2022-11-12T00:09:16;13.73;;;8.57;;
25868;SDS011;13688;53.154;18.136;2022-11-12T00:14:38;15.43;;;9.43;;
25868;SDS011;13688;53.154;18.136;2022-11-12T00:20:00;12.60;;;9.15;;
25868;SDS011;13688;53.154;18.136;2022-11-12T00:25:24;20.48;;;9.33;;
25868;SDS011;13688;53.154;18.136;2022-11-12T00:30:46;16.17;;;8.57;;
25868;SDS011;13688;53.154;18.136;2022-11-12T00:36:09;15.80;;;9.38;;
25868;SDS011;13688;53.154;18.136;2022-11-12T00:41:32;17.67;;;8.97;;
25868;SDS011;13688;53.154;18.136;2022-11-12T00:46:55;10.57;;;7.27;;
25868;SDS011;13688;53.154;18.136;2022-11-12T00:52:18;11.77;;;7.93;;
25868;SDS011;13688;53.154;18.136;2022-11-12T00:57:40;14.93;;;7.80;;
25868;SDS011;13688;53.154;18.136;2022-11-12T01:03:02;12.40;;;7.83;;
25868;SDS011;13688;53.154;18.136;2022-11-12T01:08:25;15.13;;;8.85;;
25868;SDS011;13688;53.154;18.136;2022-11-12T01:14:04;15.33;;;9.23;;
25868;SDS011;13688;53.154;18.136;2022-11-12T01:19:27;16.87;;;10.70;;
25868;SDS011;13688;53.154;18.136;2022-11-12T01:24:49;16.27;;;9.63;;
25868;SDS011;13688;53.154;18.136;2022-11-12T01:30:12;20.77;;;11.57;;
25868;SDS011;13688;53.154;18.136;2022-11-12T01:35:34;21.00;;;11.57;;
25868;SDS011;13688;53.154;18.136;2022-11-12T01:40:57;26.07;;;11.97;;
25868;SDS011;13688;53.154;18.136;2022-11-12T01:46:40;22.73;;;12.07;;
25868;SDS011;13688;53.154;18.136;2022-11-12T01:52:09;18.48;;;11.70;;
25868;SDS011;13688;53.154;18.136;2022-11-12T01:57:52;22.70;;;13.00;;
25868;SDS011;13688;53.154;18.136;2022-11-12T02:03:23;24.02;;;13.72;;
25868;SDS011;13688;53.154;18.136;2022-11-12T02:08:47;20.60;;;12.90;;
25868;SDS011;13688;53.154;18.136;2022-11-12T02:14:10;25.93;;;14.47;;
25868;SDS011;13688;53.154;18.136;2022-11-12T02:19:35;23.45;;;14.05;;
25868;SDS011;13688;53.154;18.136;2022-11-12T02:24:57;24.07;;;14.50;;
25868;SDS011;13688;53.154;18.136;2022-11-12T02:30:38;25.48;;;15.00;;
25868;SDS011;13688;53.154;18.136;2022-11-12T02:36:03;21.30;;;14.23;;
25868;SDS011;13688;53.154;18.136;2022-11-12T02:41:25;21.77;;;13.47;;
25868;SDS011;13688;53.154;18.136;2022-11-12T02:46:47;22.82;;;13.70;;
25868;SDS011;13688;53.154;18.136;2022-11-12T02:52:10;23.20;;;13.65;;
25868;SDS011;13688;53.154;18.136;2022-11-12T02:57:32;17.27;;;11.28;;
25868;SDS011;13688;53.154;18.136;2022-11-12T03:02:55;17.42;;;11.90;;
25868;SDS011;13688;53.154;18.136;2022-11-12T03:08:17;17.62;;;11.45;;
25868;SDS011;13688;53.154;18.136;2022-11-12T03:13:40;17.13;;;11.30;;
25868;SDS011;13688;53.154;18.136;2022-11-12T03:19:03;17.53;;;10.77;;
25868;SDS011;13688;53.154;18.136;2022-11-12T03:24:25;13.50;;;9.03;;
25868;SDS011;13688;53.154;18.136;2022-11-12T03:29:47;12.00;;;8.05;;
25868;SDS011;13688;53.154;18.136;2022-11-12T03:35:10;11.15;;;7.92;;
25868;SDS011;13688;53.154;18.136;2022-11-12T03:40:32;16.17;;;9.60;;
25868;SDS011;13688;53.154;18.136;2022-11-12T03:45:55;16.27;;;8.95;;
25868;SDS011;13688;53.154;18.136;2022-11-12T03:51:17;13.65;;;9.53;;
25868;SDS011;13688;53.154;18.136;2022-11-12T03:56:40;13.28;;;9.28;;
25868;SDS011;13688;53.154;18.136;2022-11-12T04:02:02;14.70;;;8.55;;
25868;SDS011;13688;53.154;18.136;2022-11-12T04:07:25;13.15;;;8.48;;
25868;SDS011;13688;53.154;18.136;2022-11-12T04:13:11;15.77;;;9.10;;
25868;SDS011;13688;53.154;18.136;2022-11-12T04:18:33;14.63;;;9.77;;
25868;SDS011;13688;53.154;18.136;2022-11-12T04:24:20;13.93;;;8.63;;
25868;SDS011;13688;53.154;18.136;2022-11-12T04:30:00;13.70;;;8.40;;
25868;SDS011;13688;53.154;18.136;2022-11-12T04:35:23;11.73;;;8.13;;
25868;SDS011;13688;53.154;18.136;2022-11-12T04:40:47;14.30;;;8.30;;
25868;SDS011;13688;53.154;18.136;2022-11-12T04:46:27;13.63;;;8.43;;
25868;SDS011;13688;53.154;18.136;2022-11-12T04:51:49;12.30;;;7.63;;
25868;SDS011;13688;53.154;18.136;2022-11-12T04:57:11;13.53;;;8.80;;
25868;SDS011;13688;53.154;18.136;2022-11-12T05:02:33;14.00;;;8.03;;
25868;SDS011;13688;53.154;18.136;2022-11-12T05:08:00;13.88;;;8.33;;
25868;SDS011;13688;53.154;18.136;2022-11-12T05:13:23;13.77;;;8.60;;
25868;SDS011;13688;53.154;18.136;2022-11-12T05:18:46;15.75;;;9.03;;
25868;SDS011;13688;53.154;18.136;2022-11-12T05:24:08;15.30;;;9.90;;
25868;SDS011;13688;53.154;18.136;2022-11-12T05:29:32;14.58;;;8.68;;
25868;SDS011;13688;53.154;18.136;2022-11-12T05:34:54;15.43;;;9.38;;
25868;SDS011;13688;53.154;18.136;2022-11-12T05:40:17;15.75;;;9.10;;
25868;SDS011;13688;53.154;18.136;2022-11-12T05:45:41;15.63;;;8.98;;
25868;SDS011;13688;53.154;18.136;2022-11-12T05:51:02;15.38;;;8.88;;
25868;SDS011;13688;53.154;18.136;2022-11-12T05:56:25;15.10;;;9.13;;
25868;SDS011;13688;53.154;18.136;2022-11-12T06:01:48;13.70;;;8.73;;
25868;SDS011;13688;53.154;18.136;2022-11-12T06:07:10;12.60;;;8.55;;
25868;SDS011;13688;53.154;18.136;2022-11-12T06:12:32;12.33;;;8.40;;
25868;SDS011;13688;53.154;18.136;2022-11-12T06:17:54;12.68;;;8.23;;
25868;SDS011;13688;53.154;18.136;2022-11-12T06:23:17;11.10;;;7.20;;
25868;SDS011;13688;53.154;18.136;2022-11-12T06:28:39;15.18;;;7.80;;
25868;SDS011;13688;53.154;18.136;2022-11-12T06:34:01;11.57;;;7.87;;
25868;SDS011;13688;53.154;18.136;2022-11-12T06:39:24;16.77;;;8.98;;
25868;SDS011;13688;53.154;18.136;2022-11-12T06:44:46;14.67;;;8.30;;
25868;SDS011;13688;53.154;18.136;2022-11-12T06:50:08;12.03;;;8.68;;
25868;SDS011;13688;53.154;18.136;2022-11-12T06:55:30;16.82;;;10.32;;
25868;SDS011;13688;53.154;18.136;2022-11-12T07:00:53;15.48;;;8.75;;
25868;SDS011;13688;53.154;18.136;2022-11-12T07:06:24;14.83;;;9.40;;
25868;SDS011;13688;53.154;18.136;2022-11-12T07:11:48;21.33;;;8.73;;
25868;SDS011;13688;53.154;18.136;2022-11-12T07:17:11;17.85;;;8.43;;
25868;SDS011;13688;53.154;18.136;2022-11-12T07:22:33;12.18;;;8.10;;
25868;SDS011;13688;53.154;18.136;2022-11-12T07:27:55;12.93;;;7.53;;
25868;SDS011;13688;53.154;18.136;2022-11-12T07:33:18;12.55;;;7.75;;
25868;SDS011;13688;53.154;18.136;2022-11-12T07:38:41;14.60;;;8.28;;
25868;SDS011;13688;53.154;18.136;2022-11-12T07:44:05;13.03;;;7.80;;
25868;SDS011;13688;53.154;18.136;2022-11-12T07:49:28;16.35;;;9.05;;
25868;SDS011;13688;53.154;18.136;2022-11-12T07:54:51;14.23;;;8.48;;
25868;SDS011;13688;53.154;18.136;2022-11-12T08:00:13;14.38;;;9.50;;
25868;SDS011;13688;53.154;18.136;2022-11-12T08:05:36;15.23;;;9.08;;
25868;SDS011;13688;53.154;18.136;2022-11-12T08:11:00;15.20;;;10.13;;
25868;SDS011;13688;53.154;18.136;2022-11-12T08:16:24;20.70;;;10.95;;
25868;SDS011;13688;53.154;18.136;2022-11-12T08:21:46;15.70;;;9.53;;
25868;SDS011;13688;53.154;18.136;2022-11-12T08:27:09;18.87;;;11.37;;
25868;SDS011;13688;53.154;18.136;2022-11-12T08:32:32;16.35;;;10.30;;
25868;SDS011;13688;53.154;18.136;2022-11-12T08:37:58;18.30;;;10.75;;
25868;SDS011;13688;53.154;18.136;2022-11-12T08:43:21;21.17;;;11.12;;
25868;SDS011;13688;53.154;18.136;2022-11-12T08:48:44;14.53;;;9.78;;
25868;SDS011;13688;53.154;18.136;2022-11-12T08:54:06;18.92;;;11.10;;
25868;SDS011;13688;53.154;18.136;2022-11-12T08:59:28;16.00;;;10.15;;
25868;SDS011;13688;53.154;18.136;2022-11-12T09:04:50;18.00;;;9.95;;
25868;SDS011;13688;53.154;18.136;2022-11-12T09:10:13;18.65;;;11.03;;
25868;SDS011;13688;53.154;18.136;2022-11-12T09:15:36;17.82;;;11.18;;
25868;SDS011;13688;53.154;18.136;2022-11-12T09:21:03;17.17;;;9.53;;
25868;SDS011;13688;53.154;18.136;2022-11-12T09:26:27;16.10;;;9.03;;
25868;SDS011;13688;53.154;18.136;2022-11-12T09:31:51;15.63;;;8.80;;
25868;SDS011;13688;53.154;18.136;2022-11-12T09:37:13;15.43;;;9.35;;
25868;SDS011;13688;53.154;18.136;2022-11-12T09:42:36;14.80;;;8.85;;
25868;SDS011;13688;53.154;18.136;2022-11-12T09:48:05;16.95;;;8.95;;
25868;SDS011;13688;53.154;18.136;2022-11-12T09:59:16;14.83;;;9.25;;
25868;SDS011;13688;53.154;18.136;2022-11-12T10:10:17;17.73;;;10.00;;
25868;SDS011;13688;53.154;18.136;2022-11-12T10:27:20;14.50;;;8.57;;
25868;SDS011;13688;53.154;18.136;2022-11-12T10:32:46;14.47;;;8.90;;
25868;SDS011;13688;53.154;18.136;2022-11-12T10:38:15;15.20;;;8.83;;
25868;SDS011;13688;53.154;18.136;2022-11-12T10:43:35;17.80;;;9.05;;
25868;SDS011;13688;53.154;18.136;2022-11-12T10:49:06;15.63;;;9.40;;
25868;SDS011;13688;53.154;18.136;2022-11-12T10:54:36;16.70;;;9.60;;
25868;SDS011;13688;53.154;18.136;2022-11-12T11:05:35;14.90;;;8.70;;
25868;SDS011;13688;53.154;18.136;2022-11-12T11:11:30;16.97;;;9.00;;
25868;SDS011;13688;53.154;18.136;2022-11-12T11:17:00;14.50;;;8.97;;
25868;SDS011;13688;53.154;18.136;2022-11-12T11:28:17;15.07;;;8.67;;
25868;SDS011;13688;53.154;18.136;2022-11-12T11:39:23;17.87;;;8.50;;
25868;SDS011;13688;53.154;18.136;2022-11-12T11:45:02;13.83;;;9.08;;
25868;SDS011;13688;53.154;18.136;2022-11-12T11:50:38;12.37;;;8.90;;
25868;SDS011;13688;53.154;18.136;2022-11-12T11:56:08;14.07;;;8.93;;
25868;SDS011;13688;53.154;18.136;2022-11-12T12:02:00;17.67;;;11.40;;
25868;SDS011;13688;53.154;18.136;2022-11-12T12:07:36;14.83;;;8.60;;
25868;SDS011;13688;53.154;18.136;2022-11-12T12:24:42;15.48;;;8.40;;
25868;SDS011;13688;53.154;18.136;2022-11-12T12:30:24;18.65;;;8.33;;
25868;SDS011;13688;53.154;18.136;2022-11-12T12:36:01;14.87;;;7.47;;
25868;SDS011;13688;53.154;18.136;2022-11-12T12:47:34;15.40;;;8.07;;
25868;SDS011;13688;53.154;18.136;2022-11-12T13:09:25;15.37;;;7.40;;
25868;SDS011;13688;53.154;18.136;2022-11-12T13:14:52;12.20;;;7.20;;
25868;SDS011;13688;53.154;18.136;2022-11-12T13:20:33;13.20;;;7.10;;
25868;SDS011;13688;53.154;18.136;2022-11-12T13:43:30;16.10;;;7.58;;
25868;SDS011;13688;53.154;18.136;2022-11-12T13:49:01;14.03;;;7.72;;
25868;SDS011;13688;53.154;18.136;2022-11-12T13:54:35;17.20;;;8.68;;
25868;SDS011;13688;53.154;18.136;2022-11-12T14:05:46;13.20;;;7.75;;
25868;SDS011;13688;53.154;18.136;2022-11-12T14:17:03;15.40;;;7.22;;
25868;SDS011;13688;53.154;18.136;2022-11-12T14:22:53;14.23;;;8.03;;
25868;SDS011;13688;53.154;18.136;2022-11-12T14:33:52;20.32;;;8.43;;
25868;SDS011;13688;53.154;18.136;2022-11-12T14:39:40;16.52;;;8.83;;
25868;SDS011;13688;53.154;18.136;2022-11-12T14:45:02;17.48;;;10.08;;
25868;SDS011;13688;53.154;18.136;2022-11-12T14:50:33;15.93;;;10.60;;
25868;SDS011;13688;53.154;18.136;2022-11-12T14:55:57;16.93;;;10.53;;
25868;SDS011;13688;53.154;18.136;2022-11-12T15:01:24;17.30;;;10.78;;
25868;SDS011;13688;53.154;18.136;2022-11-12T15:07:26;21.70;;;11.20;;
25868;SDS011;13688;53.154;18.136;2022-11-12T15:13:25;21.67;;;11.67;;
25868;SDS011;13688;53.154;18.136;2022-11-12T15:24:34;21.00;;;11.67;;
25868;SDS011;13688;53.154;18.136;2022-11-12T15:30:07;18.70;;;11.50;;
25868;SDS011;13688;53.154;18.136;2022-11-12T15:35:35;20.43;;;11.37;;
25868;SDS011;13688;53.154;18.136;2022-11-12T15:41:00;23.00;;;11.00;;
25868;SDS011;13688;53.154;18.136;2022-11-12T15:46:32;19.50;;;12.30;;
25868;SDS011;13688;53.154;18.136;2022-11-12T15:51:54;19.03;;;11.57;;
25868;SDS011;13688;53.154;18.136;2022-11-12T15:57:17;21.53;;;12.00;;
25868;SDS011;13688;53.154;18.136;2022-11-12T16:02:43;22.30;;;11.87;;
25868;SDS011;13688;53.154;18.136;2022-11-12T16:08:20;19.12;;;11.83;;
25868;SDS011;13688;53.154;18.136;2022-11-12T16:13:43;20.15;;;12.47;;
25868;SDS011;13688;53.154;18.136;2022-11-12T16:19:13;20.92;;;12.68;;
25868;SDS011;13688;53.154;18.136;2022-11-12T16:24:34;23.50;;;13.50;;
25868;SDS011;13688;53.154;18.136;2022-11-12T16:29:57;27.45;;;15.05;;
25868;SDS011;13688;53.154;18.136;2022-11-12T16:35:27;24.53;;;14.93;;
25868;SDS011;13688;53.154;18.136;2022-11-12T16:40:51;26.37;;;15.20;;
25868;SDS011;13688;53.154;18.136;2022-11-12T16:46:23;22.87;;;14.78;;
25868;SDS011;13688;53.154;18.136;2022-11-12T16:57:01;25.30;;;15.32;;
25868;SDS011;13688;53.154;18.136;2022-11-12T17:02:25;27.60;;;15.63;;
25868;SDS011;13688;53.154;18.136;2022-11-12T17:07:54;24.85;;;15.83;;
25868;SDS011;13688;53.154;18.136;2022-11-12T17:13:14;32.08;;;16.10;;
25868;SDS011;13688;53.154;18.136;2022-11-12T17:18:36;24.55;;;14.98;;
25868;SDS011;13688;53.154;18.136;2022-11-12T17:24:00;26.55;;;15.50;;
25868;SDS011;13688;53.154;18.136;2022-11-12T17:29:24;33.37;;;15.53;;
25868;SDS011;13688;53.154;18.136;2022-11-12T17:34:46;24.95;;;15.32;;
25868;SDS011;13688;53.154;18.136;2022-11-12T17:40:09;27.15;;;15.78;;
25868;SDS011;13688;53.154;18.136;2022-11-12T17:45:31;32.48;;;17.23;;
25868;SDS011;13688;53.154;18.136;2022-11-12T17:51:05;30.70;;;16.40;;
25868;SDS011;13688;53.154;18.136;2022-11-12T17:56:29;24.75;;;14.70;;
25868;SDS011;13688;53.154;18.136;2022-11-12T18:01:51;29.33;;;15.30;;
25868;SDS011;13688;53.154;18.136;2022-11-12T18:07:14;25.97;;;15.30;;
25868;SDS011;13688;53.154;18.136;2022-11-12T18:12:38;24.30;;;15.13;;
25868;SDS011;13688;53.154;18.136;2022-11-12T18:18:01;26.37;;;15.55;;
25868;SDS011;13688;53.154;18.136;2022-11-12T18:23:24;31.55;;;15.83;;
25868;SDS011;13688;53.154;18.136;2022-11-12T18:28:50;31.82;;;17.52;;
25868;SDS011;13688;53.154;18.136;2022-11-12T18:34:15;25.05;;;15.98;;
25868;SDS011;13688;53.154;18.136;2022-11-12T18:39:37;28.15;;;17.15;;
25868;SDS011;13688;53.154;18.136;2022-11-12T18:44:59;31.70;;;17.50;;
25868;SDS011;13688;53.154;18.136;2022-11-12T18:50:22;32.65;;;17.77;;
25868;SDS011;13688;53.154;18.136;2022-11-12T18:55:45;31.62;;;18.30;;
25868;SDS011;13688;53.154;18.136;2022-11-12T19:01:11;31.30;;;18.87;;
25868;SDS011;13688;53.154;18.136;2022-11-12T19:06:35;30.72;;;18.35;;
25868;SDS011;13688;53.154;18.136;2022-11-12T19:11:58;32.65;;;19.00;;
25868;SDS011;13688;53.154;18.136;2022-11-12T19:17:20;31.70;;;18.23;;
25868;SDS011;13688;53.154;18.136;2022-11-12T19:22:43;39.08;;;20.77;;
25868;SDS011;13688;53.154;18.136;2022-11-12T19:28:06;39.30;;;19.25;;
25868;SDS011;13688;53.154;18.136;2022-11-12T19:33:31;33.75;;;20.32;;
25868;SDS011;13688;53.154;18.136;2022-11-12T19:38:54;29.80;;;19.82;;
25868;SDS011;13688;53.154;18.136;2022-11-12T19:44:17;32.88;;;20.00;;
25868;SDS011;13688;53.154;18.136;2022-11-12T19:49:40;38.65;;;21.65;;
25868;SDS011;13688;53.154;18.136;2022-11-12T19:55:02;26.90;;;17.52;;
25868;SDS011;13688;53.154;18.136;2022-11-12T20:00:25;34.83;;;20.72;;
25868;SDS011;13688;53.154;18.136;2022-11-12T20:05:49;35.45;;;20.90;;
25868;SDS011;13688;53.154;18.136;2022-11-12T20:11:17;36.80;;;21.93;;
25868;SDS011;13688;53.154;18.136;2022-11-12T20:16:39;41.15;;;21.55;;
25868;SDS011;13688;53.154;18.136;2022-11-12T20:22:01;32.40;;;21.37;;
25868;SDS011;13688;53.154;18.136;2022-11-12T20:27:24;32.53;;;21.15;;
25868;SDS011;13688;53.154;18.136;2022-11-12T20:32:46;36.10;;;22.93;;
25868;SDS011;13688;53.154;18.136;2022-11-12T20:38:09;36.38;;;23.00;;
25868;SDS011;13688;53.154;18.136;2022-11-12T20:43:33;37.58;;;23.07;;
25868;SDS011;13688;53.154;18.136;2022-11-12T20:48:55;38.53;;;23.42;;
25868;SDS011;13688;53.154;18.136;2022-11-12T20:54:18;38.80;;;23.93;;
25868;SDS011;13688;53.154;18.136;2022-11-12T20:59:40;35.80;;;23.12;;
25868;SDS011;13688;53.154;18.136;2022-11-12T21:05:02;40.75;;;23.92;;
25868;SDS011;13688;53.154;18.136;2022-11-12T21:10:25;42.00;;;24.50;;
25868;SDS011;13688;53.154;18.136;2022-11-12T21:15:47;44.73;;;24.93;;
25868;SDS011;13688;53.154;18.136;2022-11-12T21:21:13;44.80;;;25.80;;
25868;SDS011;13688;53.154;18.136;2022-11-12T21:26:36;40.67;;;24.63;;
25868;SDS011;13688;53.154;18.136;2022-11-12T21:31:58;39.25;;;24.90;;
25868;SDS011;13688;53.154;18.136;2022-11-12T21:37:20;39.13;;;25.60;;
25868;SDS011;13688;53.154;18.136;2022-11-12T21:42:43;38.28;;;24.25;;
25868;SDS011;13688;53.154;18.136;2022-11-12T21:48:06;40.52;;;24.87;;
25868;SDS011;13688;53.154;18.136;2022-11-12T21:53:29;43.47;;;25.40;;
25868;SDS011;13688;53.154;18.136;2022-11-12T21:58:51;46.10;;;25.35;;
25868;SDS011;13688;53.154;18.136;2022-11-12T22:04:14;43.60;;;26.17;;
25868;SDS011;13688;53.154;18.136;2022-11-12T22:09:36;41.27;;;25.50;;
25868;SDS011;13688;53.154;18.136;2022-11-12T22:14:59;40.80;;;25.87;;
25868;SDS011;13688;53.154;18.136;2022-11-12T22:20:23;39.60;;;24.87;;
25868;SDS011;13688;53.154;18.136;2022-11-12T22:25:45;38.78;;;24.23;;
25868;SDS011;13688;53.154;18.136;2022-11-12T22:31:10;37.65;;;24.20;;
25868;SDS011;13688;53.154;18.136;2022-11-12T22:36:35;37.77;;;25.27;;
25868;SDS011;13688;53.154;18.136;2022-11-12T22:41:58;42.17;;;25.20;;
25868;SDS011;13688;53.154;18.136;2022-11-12T22:47:20;38.02;;;24.05;;
25868;SDS011;13688;53.154;18.136;2022-11-12T22:52:42;36.25;;;24.23;;
25868;SDS011;13688;53.154;18.136;2022-11-12T22:58:06;37.85;;;24.65;;
25868;SDS011;13688;53.154;18.136;2022-11-12T23:03:29;41.85;;;25.25;;
25868;SDS011;13688;53.154;18.136;2022-11-12T23:08:52;41.65;;;24.15;;
25868;SDS011;13688;53.154;18.136;2022-11-12T23:14:15;34.60;;;23.57;;
25868;SDS011;13688;53.154;18.136;2022-11-12T23:19:37;41.42;;;24.00;;
25868;SDS011;13688;53.154;18.136;2022-11-12T23:25:00;42.80;;;24.47;;
25868;SDS011;13688;53.154;18.136;2022-11-12T23:30:23;40.63;;;24.85;;
25868;SDS011;13688;53.154;18.136;2022-11-12T23:35:45;41.00;;;24.55;;
25868;SDS011;13688;53.154;18.136;2022-11-12T23:41:16;40.97;;;25.00;;
25868;SDS011;13688;53.154;18.136;2022-11-12T23:46:40;42.20;;;25.25;;
25868;SDS011;13688;53.154;18.136;2022-11-12T23:52:02;41.50;;;24.67;;
25868;SDS011;13688;53.154;18.136;2022-11-12T23:57:25;37.73;;;24.53;;
